Airfield :
LOGIN :

Register | Disclaimer

   EN    FR    IT 

 










Legend :    VFR   Marginal VFR   IFR   Intensive IFR   Very Intensive IFR
Visi :
Ceiling :
>= 8 km
>= 3000ft
5 to 8 km
1000 to 3000 ft
1500m to 5 km
500 to 1000 ft
800 to 1500m
200 to 500 ft
< 800m
< 200 ft
Symbols :   Thunderstorms  Fog  Heavy snow  Heavy precipitations  Wind > 20 kt
SIGMETs :     Misc.  Thunderstorms  Icing  Turbulence  Mountain Waves  Volcanic Ashes






- Airport Elevation : 174 ft
- IATA code : RYG


ENRY - Moss , Rygge

CURRENT METAR :
  • 080250Z AUTO 03006KT 9999NDV BKN010/// OVC013/// M05/M06 Q1011

EXPIRED METARs :
  • 080220Z AUTO 36005KT 9999NDV OVC010/// M05/M07 Q1011
  • 080150Z AUTO 35004KT 320V020 9999NDV BKN010/// BKN013/// OVC053/// M05/M07 Q1011
  • 080120Z AUTO 06009KT 9999NDV OVC051/// M04/M06 Q1011
  • 080050Z AUTO 04008KT 9999NDV -SN OVC053/// M05/M07 Q1011
  • 080020Z AUTO 05008KT 9999NDV -SN FEW010/// SCT041/// OVC057/// M05/M06 Q1011 RESG

TAF TAF ENRY
Valid from the 08 at 00:00 until the 09 at 00:00 UTC


0800/0824 04008KT 9999 FEW010 BKN030
PROB30
TEMPO 0800/0816 2000 SN VV012
TEMPO 0816/0824 1200 SN VV009



MET'MAP, your aeronautical weather chart ! - Copyright ORBIFLY December 2007 - Disclaimer

ORBIFLY MET'MAP TEAM :

Programming & Development : Alexandra Zaïnal
Concept & original design : Baudouin d'Aumeries
Assistance for programming : Marc-Olivier Méhu
Technical & hardware support : Manuel Goepfert

Contact : metmap@orbifly.com




SOURCES & CREDITS :

   NOAA